createdAt,value
2018-09-24T00:02:26.439Z,9.90
2018-09-24T00:04:54.863Z,9.80
2018-09-24T00:07:23.280Z,9.80
2018-09-24T00:09:51.713Z,9.70
2018-09-24T00:12:20.135Z,9.70
2018-09-24T00:14:48.641Z,9.60
2018-09-24T00:17:17.065Z,9.50
2018-09-24T00:19:46.364Z,9.50
2018-09-24T00:22:14.773Z,9.50
2018-09-24T00:24:44.015Z,9.60
2018-09-24T00:27:13.332Z,9.70
2018-09-24T00:29:41.790Z,9.70
2018-09-24T00:32:10.293Z,9.70
2018-09-24T00:34:38.690Z,9.60
2018-09-24T00:37:07.880Z,9.60
2018-09-24T00:39:36.312Z,9.70
2018-09-24T00:42:04.727Z,9.70
2018-09-24T00:44:33.250Z,9.80
2018-09-24T00:47:01.652Z,9.80
2018-09-24T00:49:30.070Z,9.80
2018-09-24T00:51:58.474Z,9.80
2018-09-24T00:54:27.810Z,9.80
2018-09-24T00:56:56.220Z,9.80
2018-09-24T00:59:24.635Z,9.90
2018-09-24T01:01:53.068Z,9.90
2018-09-24T01:04:21.480Z,9.90
2018-09-24T01:06:50.194Z,9.90
2018-09-24T01:09:18.766Z,9.80
2018-09-24T01:11:47.220Z,9.90
2018-09-24T01:14:15.650Z,9.90
2018-09-24T01:16:44.186Z,9.90
2018-09-24T01:19:12.628Z,9.80
2018-09-24T01:21:41.054Z,9.90
2018-09-24T01:24:10.112Z,9.90
2018-09-24T01:26:38.566Z,9.90
2018-09-24T01:29:07.077Z,9.80
2018-09-24T01:31:35.576Z,9.90
2018-09-24T01:34:04.012Z,9.80
2018-09-24T01:36:33.398Z,9.80
2018-09-24T01:39:01.948Z,9.80
2018-09-24T01:41:30.440Z,9.80
2018-09-24T01:43:58.880Z,9.80
2018-09-24T01:46:27.460Z,9.70
2018-09-24T01:48:55.874Z,9.70
2018-09-24T01:51:33.608Z,9.70
2018-09-24T01:54:02.172Z,9.60
2018-09-24T01:56:30.870Z,9.50
2018-09-24T01:58:59.294Z,9.50
2018-09-24T02:01:27.806Z,9.50
2018-09-24T02:03:56.260Z,9.40
2018-09-24T02:06:24.672Z,9.30
2018-09-24T02:08:53.192Z,9.30
2018-09-24T02:11:21.604Z,9.30
2018-09-24T02:13:51.264Z,9.30
2018-09-24T02:16:20.462Z,9.30
2018-09-24T02:18:49.508Z,9.30
2018-09-24T02:21:18.165Z,9.30
2018-09-24T02:23:46.594Z,9.30
2018-09-24T02:26:15.188Z,9.30
2018-09-24T02:28:43.612Z,9.20
2018-09-24T02:31:12.048Z,9.20
2018-09-24T02:33:40.474Z,9.20
2018-09-24T02:36:08.993Z,9.10
2018-09-24T02:38:39.866Z,9.10
2018-09-24T02:41:08.453Z,9.00
2018-09-24T02:43:37.208Z,9.00
2018-09-24T02:46:05.722Z,9.00
2018-09-24T02:48:34.230Z,9.00
2018-09-24T02:51:02.646Z,8.90
2018-09-24T02:53:36.613Z,8.90
2018-09-24T02:56:05.036Z,8.70
2018-09-24T02:58:33.460Z,8.70
2018-09-24T03:01:01.874Z,8.60
2018-09-24T03:03:30.286Z,8.60
2018-09-24T03:05:58.688Z,8.50
2018-09-24T03:08:27.132Z,8.50
2018-09-24T03:10:57.096Z,8.50
2018-09-24T03:13:25.506Z,8.40
2018-09-24T03:15:53.913Z,8.40
2018-09-24T03:18:22.321Z,8.50
2018-09-24T03:20:50.732Z,8.60
2018-09-24T03:23:19.159Z,8.80
2018-09-24T03:25:47.569Z,8.80
2018-09-24T03:28:16.019Z,8.80
2018-09-24T03:30:44.458Z,8.70
2018-09-24T03:33:12.880Z,8.50
2018-09-24T03:35:41.342Z,8.40
2018-09-24T03:38:09.822Z,8.20
2018-09-24T03:40:38.302Z,8.20
2018-09-24T03:43:06.732Z,8.10
2018-09-24T03:45:35.162Z,8.00
2018-09-24T03:48:03.651Z,8.00
2018-09-24T03:50:32.078Z,8.00
2018-09-24T03:53:00.494Z,8.00
2018-09-24T03:55:29.536Z,8.00
2018-09-24T03:57:57.959Z,8.00
2018-09-24T04:00:26.410Z,8.10
2018-09-24T04:02:54.958Z,8.10
2018-09-24T04:05:28.672Z,8.10
2018-09-24T04:08:02.518Z,8.00
2018-09-24T04:12:05.785Z,8.00
2018-09-24T04:14:39.612Z,8.00
2018-09-24T04:17:13.434Z,8.00
2018-09-24T04:19:47.954Z,8.00
2018-09-24T04:22:21.806Z,8.00
2018-09-24T04:24:55.470Z,8.00
2018-09-24T04:27:29.266Z,8.00
2018-09-24T04:30:03.163Z,7.90
2018-09-24T04:32:36.920Z,8.00
2018-09-24T04:35:11.118Z,8.00
2018-09-24T04:37:45.058Z,8.00
2018-09-24T04:40:19.006Z,8.10
2018-09-24T04:42:52.786Z,8.10
2018-09-24T04:45:26.482Z,8.00
2018-09-24T04:48:00.291Z,8.00
2018-09-24T04:50:33.989Z,8.10
2018-09-24T04:53:07.730Z,8.10
2018-09-24T04:55:42.002Z,8.10
2018-09-24T04:58:15.968Z,8.10
2018-09-24T05:00:49.738Z,8.10
2018-09-24T05:03:23.542Z,8.00
2018-09-24T05:05:57.278Z,8.10
2018-09-24T05:08:31.084Z,8.10
2018-09-24T05:11:04.936Z,8.00
2018-09-24T05:13:38.752Z,8.00
2018-09-24T05:16:12.689Z,8.00
2018-09-24T05:18:46.548Z,8.00
2018-09-24T05:21:20.246Z,8.00
2018-09-24T05:23:54.256Z,9.10
2018-09-24T05:26:28.114Z,8.00
2018-09-24T05:29:01.823Z,8.00
2018-09-24T05:31:35.766Z,8.00
2018-09-24T05:34:09.696Z,8.00
2018-09-24T05:36:43.582Z,8.00
2018-09-24T05:39:17.348Z,8.00
2018-09-24T05:41:51.198Z,7.90
2018-09-24T05:44:24.866Z,8.00
2018-09-24T05:46:58.758Z,8.00
2018-09-24T05:49:32.466Z,8.00
2018-09-24T05:52:06.286Z,8.00
2018-09-24T05:54:40.170Z,8.00
2018-09-24T05:57:14.005Z,8.00
2018-09-24T05:59:48.002Z,7.90
2018-09-24T06:02:21.938Z,7.90
2018-09-24T06:04:55.978Z,8.00
2018-09-24T06:07:29.752Z,7.90
2018-09-24T06:10:03.678Z,7.90
2018-09-24T06:12:37.707Z,8.00
2018-09-24T06:15:11.666Z,8.00
2018-09-24T06:17:45.415Z,8.10
2018-09-24T06:20:19.268Z,8.10
2018-09-24T06:22:53.111Z,8.20
2018-09-24T06:25:26.906Z,8.30
2018-09-24T06:28:00.818Z,8.40
2018-09-24T06:30:34.634Z,8.50
2018-09-24T06:33:08.524Z,8.50
2018-09-24T06:35:42.295Z,8.60
2018-09-24T06:38:16.140Z,8.60
2018-09-24T06:40:49.928Z,8.70
2018-09-24T06:43:23.760Z,8.80
2018-09-24T06:45:57.459Z,8.90
2018-09-24T06:48:31.329Z,9.00
2018-09-24T06:51:05.164Z,9.00
2018-09-24T06:53:39.057Z,9.10
2018-09-24T06:56:13.023Z,9.20
2018-09-24T06:58:46.892Z,9.30
2018-09-24T07:01:20.839Z,9.30
2018-09-24T07:03:54.550Z,9.40
2018-09-24T07:06:29.129Z,9.50
2018-09-24T07:09:03.061Z,9.60
2018-09-24T07:11:36.825Z,9.60
2018-09-24T07:14:10.646Z,9.70
2018-09-24T07:16:44.356Z,9.80
2018-09-24T07:19:18.145Z,9.90
2018-09-24T07:21:52.077Z,10.00
2018-09-24T07:24:25.760Z,10.10
2018-09-24T07:26:59.575Z,10.20
2018-09-24T07:29:33.386Z,10.30
2018-09-24T07:32:07.105Z,10.40
2018-09-24T07:34:41.083Z,10.50
2018-09-24T07:37:15.041Z,10.60
2018-09-24T07:39:48.856Z,10.60
2018-09-24T07:42:22.605Z,10.70
2018-09-24T07:44:56.419Z,10.80
2018-09-24T07:47:30.236Z,10.80
2018-09-24T07:50:04.134Z,11.00
2018-09-24T07:52:38.025Z,11.00
2018-09-24T07:55:11.907Z,11.20
2018-09-24T07:57:45.639Z,11.30
2018-09-24T08:00:19.399Z,11.40
2018-09-24T08:02:53.107Z,11.50
2018-09-24T08:05:26.957Z,11.60
2018-09-24T08:08:00.689Z,11.70
2018-09-24T08:10:34.432Z,11.80
2018-09-24T08:13:08.177Z,12.00
2018-09-24T08:15:42.017Z,12.10
2018-09-24T08:18:16.068Z,12.30
2018-09-24T08:20:49.923Z,12.40
2018-09-24T08:23:23.793Z,12.50
2018-09-24T08:25:57.759Z,12.60
2018-09-24T08:28:31.637Z,12.70
2018-09-24T08:31:05.477Z,12.70
2018-09-24T08:33:39.285Z,12.80
2018-09-24T08:36:13.096Z,12.90
2018-09-24T08:38:46.894Z,13.00
2018-09-24T08:41:20.611Z,13.10
2018-09-24T08:43:55.125Z,13.20
2018-09-24T08:46:28.993Z,13.30
2018-09-24T08:49:02.908Z,13.40
2018-09-24T08:51:36.824Z,13.40
2018-09-24T08:54:10.787Z,13.50
2018-09-24T08:56:44.559Z,13.50
2018-09-24T08:59:18.319Z,13.50
2018-09-24T09:01:52.045Z,13.60
2018-09-24T09:04:25.909Z,13.70
2018-09-24T09:06:59.681Z,13.80
2018-09-24T09:09:33.545Z,13.90
2018-09-24T09:12:07.257Z,14.00
2018-09-24T09:14:41.068Z,14.10
2018-09-24T09:17:14.882Z,14.20
2018-09-24T09:19:48.785Z,14.30
2018-09-24T09:22:22.524Z,14.10
2018-09-24T09:24:56.399Z,14.00
2018-09-24T09:27:30.322Z,13.90
2018-09-24T09:30:04.361Z,13.90
2018-09-24T09:32:38.557Z,14.00
2018-09-24T09:35:12.502Z,14.10
2018-09-24T09:37:46.408Z,14.30
2018-09-24T09:40:20.342Z,14.40
2018-09-24T09:42:54.160Z,14.50
2018-09-24T09:45:27.895Z,14.60
2018-09-24T09:48:01.834Z,14.80
2018-09-24T09:50:35.622Z,14.90
2018-09-24T09:53:09.570Z,14.90
2018-09-24T09:55:43.461Z,14.80
2018-09-24T09:58:17.372Z,14.60
2018-09-24T10:00:51.125Z,14.40
2018-09-24T10:03:25.001Z,14.30
2018-09-24T10:05:58.774Z,14.40
2018-09-24T10:08:32.671Z,14.60
2018-09-24T10:11:06.660Z,14.80
2018-09-24T10:13:40.372Z,14.90
2018-09-24T10:16:14.312Z,15.00
2018-09-24T10:18:48.085Z,15.00
2018-09-24T10:21:22.890Z,15.10
2018-09-24T10:23:56.691Z,15.20
2018-09-24T10:26:30.559Z,15.10
2018-09-24T10:29:04.329Z,14.80
2018-09-24T10:31:38.240Z,14.60
2018-09-24T10:34:12.209Z,14.70
2018-09-24T10:36:46.144Z,14.80
2018-09-24T10:39:20.003Z,15.00
2018-09-24T10:41:53.939Z,14.90
2018-09-24T10:44:28.419Z,14.80
2018-09-24T10:47:02.298Z,14.80
2018-09-24T10:49:36.097Z,15.00
2018-09-24T10:52:09.934Z,15.10
2018-09-24T10:54:43.879Z,15.10
2018-09-24T10:57:18.385Z,14.80
2018-09-24T10:59:52.276Z,14.70
2018-09-24T11:02:26.037Z,14.70
2018-09-24T11:04:59.870Z,15.00
2018-09-24T11:07:33.687Z,15.20
2018-09-24T11:10:07.505Z,15.30
2018-09-24T11:12:41.282Z,15.20
2018-09-24T11:15:15.257Z,15.30
2018-09-24T11:17:49.257Z,15.40
2018-09-24T11:20:22.942Z,15.60
2018-09-24T11:22:56.660Z,15.40
2018-09-24T11:25:30.440Z,15.20
2018-09-24T11:28:04.204Z,15.20
2018-09-24T11:30:38.101Z,15.30
2018-09-24T11:33:11.843Z,15.50
2018-09-24T11:35:45.784Z,15.70
2018-09-24T11:38:19.703Z,15.90
2018-09-24T11:40:53.443Z,15.90
2018-09-24T11:43:27.313Z,15.80
2018-09-24T11:46:01.052Z,15.70
2018-09-24T11:48:34.725Z,15.70
2018-09-24T11:51:08.490Z,15.90
2018-09-24T11:53:42.270Z,16.00
2018-09-24T11:56:16.134Z,15.70
2018-09-24T11:58:49.939Z,15.50
2018-09-24T12:01:23.712Z,15.50
2018-09-24T12:03:57.502Z,15.60
2018-09-24T12:06:31.270Z,15.80
2018-09-24T12:09:04.970Z,16.00
2018-09-24T12:11:38.856Z,16.10
2018-09-24T12:14:12.586Z,15.90
2018-09-24T12:16:46.571Z,15.60
2018-09-24T12:19:20.341Z,15.30
2018-09-24T12:21:55.040Z,15.20
2018-09-24T12:24:28.809Z,15.40
2018-09-24T12:27:02.742Z,15.50
2018-09-24T12:29:36.613Z,15.60
2018-09-24T12:32:10.572Z,15.80
2018-09-24T12:34:44.352Z,16.00
2018-09-24T12:37:18.209Z,16.30
2018-09-24T12:39:52.024Z,16.40
2018-09-24T12:42:26.001Z,16.40
2018-09-24T12:44:59.736Z,16.40
2018-09-24T12:47:33.484Z,16.30
2018-09-24T12:50:07.233Z,16.30
2018-09-24T12:52:41.006Z,16.40
2018-09-24T12:55:14.861Z,16.50
2018-09-24T12:57:48.787Z,16.50
2018-09-24T13:00:23.101Z,16.60
2018-09-24T13:02:56.871Z,16.70
2018-09-24T13:05:30.794Z,16.80
2018-09-24T13:08:04.612Z,16.70
2018-09-24T13:10:38.587Z,16.70
2018-09-24T13:13:12.497Z,16.50
2018-09-24T13:15:46.394Z,16.20
2018-09-24T13:18:20.307Z,15.90
2018-09-24T13:20:54.302Z,15.90
2018-09-24T13:23:28.185Z,16.10
2018-09-24T13:26:01.994Z,16.20
2018-09-24T13:28:35.929Z,16.40
2018-09-24T13:31:09.704Z,16.50
2018-09-24T13:33:43.733Z,16.60
2018-09-24T13:36:17.653Z,16.70
2018-09-24T13:38:51.417Z,16.90
2018-09-24T13:41:25.257Z,17.00
2018-09-24T13:43:59.048Z,16.90
2018-09-24T13:46:32.997Z,16.90
2018-09-24T13:49:06.735Z,17.00
2018-09-24T13:51:40.669Z,17.00
2018-09-24T13:54:14.441Z,17.00
2018-09-24T13:56:48.406Z,17.10
2018-09-24T13:59:22.171Z,17.00
2018-09-24T14:01:56.141Z,16.80
2018-09-24T14:04:30.132Z,16.70
2018-09-24T14:07:03.875Z,16.60
2018-09-24T14:09:37.698Z,16.60
2018-09-24T14:12:11.582Z,16.60
2018-09-24T14:14:45.455Z,16.70
2018-09-24T14:17:19.461Z,16.70
2018-09-24T14:19:53.285Z,16.80
2018-09-24T14:22:27.300Z,16.80
2018-09-24T14:25:01.190Z,16.80
2018-09-24T14:27:34.964Z,16.90
2018-09-24T14:30:08.772Z,16.90
2018-09-24T14:32:42.743Z,17.00
2018-09-24T14:35:16.489Z,17.10
2018-09-24T14:37:50.428Z,17.00
2018-09-24T14:40:24.193Z,16.60
2018-09-24T14:42:57.889Z,16.40
2018-09-24T14:45:31.858Z,16.40
2018-09-24T14:48:05.830Z,16.50
2018-09-24T14:50:39.768Z,16.60
2018-09-24T14:53:13.721Z,16.70
2018-09-24T14:55:47.419Z,16.60
2018-09-24T14:58:21.246Z,16.60
2018-09-24T15:00:55.310Z,16.70
2018-09-24T15:03:29.165Z,16.70
2018-09-24T15:06:03.129Z,16.70
2018-09-24T15:08:37.161Z,16.70
2018-09-24T15:11:11.008Z,16.90
2018-09-24T15:13:44.961Z,17.00
2018-09-24T15:16:18.578Z,17.10
2018-09-24T15:18:52.466Z,17.10
2018-09-24T15:21:26.203Z,17.10
2018-09-24T15:24:00.058Z,17.10
2018-09-24T15:26:34.009Z,17.10
2018-09-24T15:29:07.900Z,17.20
2018-09-24T15:31:41.858Z,17.10
2018-09-24T15:34:15.837Z,17.10
2018-09-24T15:36:49.878Z,17.10
2018-09-24T15:39:23.834Z,17.10
2018-09-24T15:41:57.690Z,16.90
2018-09-24T15:44:31.657Z,16.40
2018-09-24T15:47:05.482Z,16.10
2018-09-24T15:49:39.415Z,15.70
2018-09-24T15:52:13.566Z,15.50
2018-09-24T15:54:47.320Z,15.30
2018-09-24T15:57:21.259Z,15.50
2018-09-24T15:59:55.158Z,15.90
2018-09-24T16:02:29.003Z,16.40
2018-09-24T16:05:02.938Z,16.80
2018-09-24T16:07:36.926Z,17.10
2018-09-24T16:10:11.109Z,17.40
2018-09-24T16:12:44.948Z,17.60
2018-09-24T16:15:19.718Z,17.80
2018-09-24T16:17:53.526Z,17.90
2018-09-24T16:20:27.363Z,17.90
2018-09-24T16:23:01.413Z,17.90
2018-09-24T16:25:35.685Z,18.00
2018-09-24T16:28:09.672Z,18.00
2018-09-24T16:30:43.571Z,17.90
2018-09-24T16:33:17.593Z,17.90
2018-09-24T16:35:51.442Z,17.90
2018-09-24T16:38:25.230Z,17.80
2018-09-24T16:40:59.658Z,17.80
2018-09-24T16:43:33.492Z,17.70
2018-09-24T16:46:07.574Z,17.80
2018-09-24T16:48:42.406Z,17.90
2018-09-24T16:51:16.371Z,17.80
2018-09-24T16:53:50.289Z,17.70
2018-09-24T16:56:24.300Z,17.50
2018-09-24T16:58:58.106Z,17.20
2018-09-24T17:01:31.974Z,16.80
2018-09-24T17:04:05.986Z,16.50
2018-09-24T17:06:39.967Z,16.40
2018-09-24T17:09:14.697Z,16.30
2018-09-24T17:11:48.701Z,16.10
2018-09-24T17:14:22.650Z,16.10
2018-09-24T17:16:56.650Z,16.20
2018-09-24T17:19:30.852Z,16.20
2018-09-24T17:22:04.671Z,16.10
2018-09-24T17:24:38.429Z,16.00
2018-09-24T17:27:12.928Z,15.80
2018-09-24T17:29:47.654Z,15.70
2018-09-24T17:32:21.603Z,15.60
2018-09-24T17:34:56.188Z,15.30
2018-09-24T17:37:30.169Z,15.10
2018-09-24T17:40:04.102Z,15.00
2018-09-24T17:42:37.788Z,14.90
2018-09-24T17:45:11.548Z,14.80
2018-09-24T17:47:45.533Z,14.80
2018-09-24T17:50:19.593Z,14.70
2018-09-24T17:52:53.559Z,14.70
2018-09-24T17:55:27.541Z,14.60
2018-09-24T17:58:01.572Z,14.50
2018-09-24T18:00:35.405Z,14.40
2018-09-24T18:03:09.296Z,14.20
2018-09-24T18:05:43.248Z,14.10
2018-09-24T18:08:17.240Z,14.00
2018-09-24T18:10:51.144Z,13.90
2018-09-24T18:13:25.018Z,13.80
2018-09-24T18:15:59.286Z,13.70
2018-09-24T18:18:33.313Z,13.60
2018-09-24T18:21:07.133Z,13.50
2018-09-24T18:23:40.964Z,13.40
2018-09-24T18:26:14.839Z,13.30
2018-09-24T18:28:48.804Z,13.20
2018-09-24T18:31:22.766Z,13.00
2018-09-24T18:33:57.824Z,12.90
2018-09-24T18:36:31.797Z,12.70
2018-09-24T18:39:06.326Z,12.70
2018-09-24T18:41:40.193Z,12.60
2018-09-24T18:44:14.183Z,12.50
2018-09-24T18:46:48.094Z,12.50
2018-09-24T18:49:22.032Z,12.40
2018-09-24T18:51:55.984Z,12.30
2018-09-24T18:54:30.029Z,12.30
2018-09-24T18:57:04.004Z,12.10
2018-09-24T18:59:37.946Z,12.00
2018-09-24T19:02:11.832Z,11.90
2018-09-24T19:04:45.570Z,11.80
2018-09-24T19:07:19.596Z,11.70
2018-09-24T19:09:53.588Z,11.60
2018-09-24T19:12:27.419Z,11.50
2018-09-24T19:15:01.354Z,11.40
2018-09-24T19:17:35.185Z,11.30
2018-09-24T19:20:09.661Z,11.80
2018-09-24T19:22:43.625Z,11.10
2018-09-24T19:25:17.416Z,11.10
2018-09-24T19:27:51.286Z,11.00
2018-09-24T19:30:25.234Z,11.00
2018-09-24T19:32:59.240Z,11.00
2018-09-24T19:35:33.062Z,10.90
2018-09-24T19:38:06.919Z,10.80
2018-09-24T19:40:40.878Z,10.80
2018-09-24T19:43:14.841Z,10.70
2018-09-24T19:45:48.774Z,10.70
2018-09-24T19:48:22.597Z,10.60
2018-09-24T19:50:56.308Z,10.60
2018-09-24T19:53:30.130Z,10.50
2018-09-24T19:56:04.159Z,10.40
2018-09-24T19:58:38.056Z,10.30
2018-09-24T20:01:12.306Z,10.30
2018-09-24T20:03:46.050Z,10.20
2018-09-24T20:06:19.816Z,10.20
2018-09-24T20:08:53.744Z,10.10
2018-09-24T20:11:27.702Z,10.00
2018-09-24T20:14:01.526Z,9.90
2018-09-24T20:16:35.535Z,9.80
2018-09-24T20:19:09.488Z,9.80
2018-09-24T20:21:43.278Z,9.70
2018-09-24T20:24:17.065Z,9.60
2018-09-24T20:26:50.871Z,9.50
2018-09-24T20:29:24.696Z,9.50
2018-09-24T20:31:58.478Z,9.50
2018-09-24T20:34:32.367Z,9.40
2018-09-24T20:37:06.248Z,9.40
2018-09-24T20:39:40.232Z,9.30
2018-09-24T20:42:14.162Z,9.30
2018-09-24T20:44:48.038Z,9.30
2018-09-24T20:47:21.962Z,9.40
2018-09-24T20:49:55.984Z,9.30
2018-09-24T20:52:29.741Z,9.30
2018-09-24T20:55:03.534Z,9.20
2018-09-24T20:57:37.481Z,9.20
2018-09-24T21:00:11.692Z,9.10
2018-09-24T21:02:45.453Z,9.20
2018-09-24T21:05:19.328Z,9.20
2018-09-24T21:07:53.124Z,9.20
2018-09-24T21:10:26.964Z,9.20
2018-09-24T21:13:00.771Z,9.20
2018-09-24T21:15:34.661Z,9.20
2018-09-24T21:18:08.677Z,9.20
2018-09-24T21:20:42.327Z,9.10
2018-09-24T21:23:16.025Z,9.00
2018-09-24T21:25:49.706Z,8.90
2018-09-24T21:28:23.578Z,8.80
2018-09-24T21:31:04.413Z,8.80
2018-09-24T21:33:38.234Z,8.90
2018-09-24T21:36:12.436Z,8.90
2018-09-24T21:38:46.242Z,8.90
2018-09-24T21:41:20.280Z,8.90
2018-09-24T21:43:54.066Z,8.90
2018-09-24T21:46:28.128Z,8.80
2018-09-24T21:49:01.817Z,8.90
2018-09-24T21:51:36.052Z,8.80
2018-09-24T21:54:09.846Z,8.80
2018-09-24T21:56:43.737Z,8.80
2018-09-24T21:59:17.525Z,8.80
2018-09-24T22:01:51.450Z,8.60
2018-09-24T22:04:25.298Z,8.50
2018-09-24T22:06:59.248Z,8.40
2018-09-24T22:09:33.210Z,8.40
2018-09-24T22:12:07.190Z,8.40
2018-09-24T22:14:41.104Z,8.40
2018-09-24T22:17:14.840Z,8.40
2018-09-24T22:19:48.779Z,8.40
2018-09-24T22:22:22.731Z,8.40
2018-09-24T22:24:56.676Z,8.30
2018-09-24T22:27:30.523Z,8.30
2018-09-24T22:30:04.651Z,8.30
2018-09-24T22:32:38.515Z,8.20
2018-09-24T22:35:12.261Z,8.20
2018-09-24T22:37:46.305Z,8.20
2018-09-24T22:40:20.279Z,8.20
2018-09-24T22:42:54.205Z,8.20
2018-09-24T22:45:28.066Z,8.20
2018-09-24T22:48:02.070Z,8.20
2018-09-24T22:50:36.813Z,8.10
2018-09-24T22:53:10.652Z,8.10
2018-09-24T22:55:44.580Z,8.00
2018-09-24T22:58:18.561Z,8.00
2018-09-24T23:00:52.284Z,8.00
2018-09-24T23:03:26.187Z,7.90
2018-09-24T23:06:00.973Z,7.80
2018-09-24T23:08:34.974Z,7.70
2018-09-24T23:11:08.879Z,7.60
2018-09-24T23:13:42.684Z,7.50
2018-09-24T23:16:16.642Z,7.40
2018-09-24T23:18:50.565Z,7.30
2018-09-24T23:21:24.555Z,7.30
2018-09-24T23:23:58.487Z,7.20
2018-09-24T23:26:32.340Z,7.20
2018-09-24T23:29:06.285Z,7.30
2018-09-24T23:31:40.103Z,7.30
2018-09-24T23:34:14.028Z,7.30
2018-09-24T23:36:47.953Z,7.30
2018-09-24T23:39:21.957Z,7.20
2018-09-24T23:41:55.938Z,7.30
2018-09-24T23:44:29.859Z,7.20
2018-09-24T23:47:03.790Z,7.20
2018-09-24T23:49:37.638Z,7.20
2018-09-24T23:52:11.449Z,7.20
2018-09-24T23:54:45.284Z,7.20
2018-09-24T23:57:19.160Z,7.20
2018-09-24T23:59:52.970Z,7.10
